createdAt,value
2023-01-13T00:01:09.233Z,101215.88
2023-01-13T00:03:36.689Z,101212.56
2023-01-13T00:06:04.113Z,101212.59
2023-01-13T00:08:31.453Z,101209.16
2023-01-13T00:10:58.758Z,101199.66
2023-01-13T00:13:28.659Z,101203.13
2023-01-13T00:15:59.222Z,101198.00
2023-01-13T00:18:26.353Z,101198.88
2023-01-13T00:20:59.651Z,101201.38
2023-01-13T00:23:27.346Z,101200.53
2023-01-13T00:26:02.237Z,101203.19
2023-01-13T00:28:29.233Z,101208.34
2023-01-13T00:30:58.375Z,101212.66
2023-01-13T00:33:25.906Z,101213.47
2023-01-13T00:35:57.421Z,101216.91
2023-01-13T00:38:25.019Z,101218.66
2023-01-13T00:40:59.111Z,101216.16
2023-01-13T00:43:27.018Z,101212.69
2023-01-13T00:45:54.555Z,101208.38
2023-01-13T00:48:22.572Z,101217.84
2023-01-13T00:50:57.042Z,101211.03
2023-01-13T00:53:24.714Z,101216.16
2023-01-13T00:56:01.663Z,101215.31
2023-01-13T00:58:31.125Z,101218.72
2023-01-13T01:01:01.936Z,101218.63
2023-01-13T01:03:29.298Z,101216.13
2023-01-13T01:05:57.177Z,101216.94
2023-01-13T01:08:24.296Z,101217.75
2023-01-13T01:11:00.054Z,101217.66
2023-01-13T01:13:27.246Z,101210.72
2023-01-13T01:15:54.463Z,101219.28
2023-01-13T01:18:21.693Z,101223.63
2023-01-13T01:20:48.866Z,101204.72
2023-01-13T01:23:16.029Z,101202.22
2023-01-13T01:25:43.382Z,101204.81
2023-01-13T01:28:10.379Z,101211.72
2023-01-13T01:30:39.320Z,101198.91
2023-01-13T01:33:06.349Z,101197.94
2023-01-13T01:35:33.547Z,101195.44
2023-01-13T01:38:00.594Z,101194.66
2023-01-13T01:40:27.767Z,101190.44
2023-01-13T01:43:13.689Z,101183.56
2023-01-13T01:45:40.764Z,101185.28
2023-01-13T01:48:08.405Z,101181.88
2023-01-13T01:50:36.078Z,101175.91
2023-01-13T01:53:07.180Z,101176.78
2023-01-13T01:55:36.878Z,101176.81
2023-01-13T01:58:09.912Z,101176.78
2023-01-13T02:00:37.651Z,101163.97
2023-01-13T02:03:06.114Z,101163.16
2023-01-13T02:05:34.393Z,101161.44
2023-01-13T02:08:02.505Z,101152.88
2023-01-13T02:10:30.479Z,101159.72
2023-01-13T02:13:02.324Z,101167.44
2023-01-13T02:15:45.669Z,101167.44
2023-01-13T02:18:15.931Z,101166.59
2023-01-13T02:20:55.186Z,101165.78
2023-01-13T02:23:41.486Z,101169.22
2023-01-13T02:26:08.584Z,101161.50
2023-01-13T02:28:36.134Z,101152.91
2023-01-13T02:31:25.390Z,101147.78
2023-01-13T02:34:01.069Z,101144.34
2023-01-13T02:36:37.405Z,101143.53
2023-01-13T02:39:10.032Z,101130.75
2023-01-13T02:42:03.428Z,101123.00
2023-01-13T02:44:37.290Z,101124.72
2023-01-13T02:47:06.668Z,101118.78
2023-01-13T02:49:43.440Z,101121.31
2023-01-13T02:52:14.059Z,101111.09
2023-01-13T02:54:45.825Z,101106.00
2023-01-13T02:57:16.451Z,101103.38
2023-01-13T02:59:45.215Z,101096.53
2023-01-13T03:02:14.066Z,101098.25
2023-01-13T03:04:52.263Z,101104.25
2023-01-13T03:07:22.493Z,101100.84
2023-01-13T03:09:56.165Z,101100.00
2023-01-13T03:12:30.549Z,101093.19
2023-01-13T03:15:04.388Z,101092.38
2023-01-13T03:17:54.173Z,101106.94
2023-01-13T03:20:24.169Z,101094.06
2023-01-13T03:23:06.563Z,101094.97
2023-01-13T03:25:37.254Z,101100.97
2023-01-13T03:28:12.094Z,101094.97
2023-01-13T03:30:45.269Z,101103.53
2023-01-13T03:33:17.744Z,101096.69
2023-01-13T03:35:51.103Z,101100.09
2023-01-13T03:38:22.139Z,101097.63
2023-01-13T03:40:58.126Z,101103.59
2023-01-13T03:43:49.569Z,101098.50
2023-01-13T03:46:20.380Z,101097.59
2023-01-13T03:48:51.225Z,101101.91
2023-01-13T03:51:20.658Z,101107.09
2023-01-13T03:53:57.285Z,101101.97
2023-01-13T03:56:25.532Z,101095.09
2023-01-13T03:58:54.448Z,101100.22
2023-01-13T04:01:24.912Z,101096.81
2023-01-13T04:03:52.045Z,101097.69
2023-01-13T04:06:25.232Z,101092.50
2023-01-13T04:08:56.274Z,101093.31
2023-01-13T04:11:35.675Z,101087.31
2023-01-13T04:14:03.861Z,101093.38
2023-01-13T04:16:31.327Z,101090.78
2023-01-13T04:18:58.845Z,101080.56
2023-01-13T04:21:26.289Z,101084.81
2023-01-13T04:23:53.936Z,101080.47
2023-01-13T04:26:23.376Z,101084.88
2023-01-13T04:28:51.912Z,101084.88
2023-01-13T04:31:19.063Z,101084.00
2023-01-13T04:33:46.240Z,101081.44
2023-01-13T04:36:13.385Z,101085.69
2023-01-13T04:38:40.503Z,101095.03
2023-01-13T04:41:07.722Z,101096.59
2023-01-13T04:43:34.805Z,101105.31
2023-01-13T04:46:01.984Z,101099.34
2023-01-13T04:48:29.143Z,101090.78
2023-01-13T04:50:56.251Z,101088.13
2023-01-13T04:53:23.366Z,101093.31
2023-01-13T04:55:50.555Z,101095.91
2023-01-13T04:58:17.892Z,101096.78
2023-01-13T05:00:45.108Z,101100.22
2023-01-13T05:03:12.177Z,101103.59
2023-01-13T05:05:39.426Z,101095.00
2023-01-13T05:08:06.582Z,101095.91
2023-01-13T05:10:33.685Z,101093.31
2023-01-13T05:13:20.188Z,101091.63
2023-01-13T05:16:22.862Z,101096.69
2023-01-13T05:18:49.988Z,101088.16
2023-01-13T05:21:35.950Z,101088.16
2023-01-13T05:24:21.917Z,101094.19
2023-01-13T05:26:49.013Z,101113.91
2023-01-13T05:29:16.250Z,101111.31
2023-01-13T05:31:43.378Z,101108.72
2023-01-13T05:34:11.359Z,101102.81
2023-01-13T05:36:38.404Z,101105.38
2023-01-13T05:39:05.652Z,101112.22
2023-01-13T05:41:51.463Z,101119.09
2023-01-13T05:44:18.495Z,101135.38
2023-01-13T05:46:45.712Z,101125.94
2023-01-13T05:49:12.829Z,101131.09
2023-01-13T05:51:40.018Z,101137.13
2023-01-13T05:54:07.395Z,101117.44
2023-01-13T05:56:35.101Z,101116.56
2023-01-13T05:59:02.229Z,101116.53
2023-01-13T06:01:29.295Z,101115.66
2023-01-13T06:03:56.408Z,101124.28
2023-01-13T06:06:23.444Z,101120.88
2023-01-13T06:08:50.579Z,101115.66
2023-01-13T06:11:17.691Z,101112.22
2023-01-13T06:13:45.146Z,101120.81
2023-01-13T06:16:12.239Z,101121.69
2023-01-13T06:18:39.469Z,101127.72
2023-01-13T06:21:06.586Z,101131.13
2023-01-13T06:23:35.264Z,101136.25
2023-01-13T06:26:07.065Z,101141.41
2023-01-13T06:28:34.864Z,101127.69
2023-01-13T06:31:03.557Z,101134.56
2023-01-13T06:33:34.525Z,101143.09
2023-01-13T06:36:05.297Z,101143.06
2023-01-13T06:38:34.138Z,101137.13
2023-01-13T06:41:01.630Z,101136.22
2023-01-13T06:43:28.870Z,101134.47
2023-01-13T06:45:56.435Z,101141.41
2023-01-13T06:48:25.255Z,101153.34
2023-01-13T06:50:52.421Z,101139.69
2023-01-13T06:53:20.214Z,101139.69
2023-01-13T06:55:50.621Z,101144.78
2023-01-13T06:58:17.855Z,101143.94
2023-01-13T07:00:49.644Z,101155.91
2023-01-13T07:03:18.515Z,101156.00
2023-01-13T07:05:52.010Z,101144.81
2023-01-13T07:08:20.261Z,101148.22
2023-01-13T07:10:47.530Z,101156.84
2023-01-13T07:13:33.631Z,101158.56
2023-01-13T07:16:02.213Z,101170.56
2023-01-13T07:18:32.003Z,101166.25
2023-01-13T07:21:02.887Z,101155.13
2023-01-13T07:23:31.190Z,101151.72
2023-01-13T07:25:59.379Z,101149.97
2023-01-13T07:28:27.577Z,101157.66
2023-01-13T07:30:55.617Z,101165.38
2023-01-13T07:33:23.151Z,101160.19
2023-01-13T07:36:00.756Z,101156.75
2023-01-13T07:38:28.468Z,101155.03
2023-01-13T07:40:55.576Z,101156.72
2023-01-13T07:43:32.054Z,101163.56
2023-01-13T07:46:01.458Z,101163.53
2023-01-13T07:48:30.953Z,101156.59
2023-01-13T07:51:02.993Z,101164.31
2023-01-13T07:53:31.185Z,101168.56
2023-01-13T07:55:59.247Z,101170.22
2023-01-13T07:58:26.807Z,101165.06
2023-01-13T08:00:54.794Z,101178.72
2023-01-13T08:03:25.574Z,101184.69
2023-01-13T08:05:56.375Z,101176.94
2023-01-13T08:08:23.498Z,101169.97
2023-01-13T08:10:50.639Z,101178.53
2023-01-13T08:13:24.166Z,101182.75
2023-01-13T08:15:53.395Z,101183.56
2023-01-13T08:18:23.379Z,101183.50
2023-01-13T08:20:53.014Z,101180.94
2023-01-13T08:23:22.733Z,101173.19
2023-01-13T08:25:50.264Z,101171.34
2023-01-13T08:28:18.787Z,101166.00
2023-01-13T08:30:48.220Z,101171.13
2023-01-13T08:33:15.600Z,101174.56
2023-01-13T08:35:42.731Z,101174.56
2023-01-13T08:38:10.756Z,101171.16
2023-01-13T08:40:39.477Z,101159.97
2023-01-13T08:43:06.627Z,101157.38
2023-01-13T08:45:34.643Z,101161.56
2023-01-13T08:48:02.243Z,101161.38
2023-01-13T08:50:29.249Z,101153.66
2023-01-13T08:52:56.659Z,101157.91
2023-01-13T08:55:23.740Z,101169.16
2023-01-13T08:57:53.098Z,101164.03
2023-01-13T09:00:21.721Z,101164.88
2023-01-13T09:02:48.835Z,101158.00
2023-01-13T09:05:17.843Z,101172.59
2023-01-13T09:07:45.134Z,101170.78
2023-01-13T09:10:12.315Z,101163.84
2023-01-13T09:12:58.103Z,101162.06
2023-01-13T09:15:27.434Z,101161.97
2023-01-13T09:17:55.178Z,101168.78
2023-01-13T09:20:22.497Z,101165.31
2023-01-13T09:22:50.199Z,101173.84
2023-01-13T09:25:18.010Z,101180.53
2023-01-13T09:27:45.208Z,101168.44
2023-01-13T09:30:12.589Z,101175.28
2023-01-13T09:32:39.828Z,101184.50
2023-01-13T09:35:07.725Z,101190.22
2023-01-13T09:37:37.057Z,101189.59
2023-01-13T09:40:09.648Z,101189.72
2023-01-13T09:42:58.423Z,101185.38
2023-01-13T09:45:35.892Z,101171.25
2023-01-13T09:48:51.716Z,101161.06
2023-01-13T09:51:24.460Z,101154.28
2023-01-13T09:53:56.444Z,101144.84
2023-01-13T09:56:25.219Z,101137.91
2023-01-13T09:58:52.922Z,101139.53
2023-01-13T10:01:38.770Z,101134.41
2023-01-13T10:04:13.044Z,101131.88
2023-01-13T10:06:43.586Z,101133.47
2023-01-13T10:09:18.529Z,101132.63
2023-01-13T10:12:08.004Z,101135.16
2023-01-13T10:14:41.703Z,101135.88
2023-01-13T10:17:18.913Z,101131.59
2023-01-13T10:20:06.420Z,101128.03
2023-01-13T10:22:36.674Z,101115.94
2023-01-13T10:25:22.196Z,101110.72
2023-01-13T10:27:50.713Z,101119.28
2023-01-13T10:30:19.664Z,101115.91
2023-01-13T10:32:57.532Z,101110.78
2023-01-13T10:35:43.953Z,101102.13
2023-01-13T10:38:30.411Z,101100.41
2023-01-13T10:40:58.946Z,101099.47
2023-01-13T10:43:27.260Z,101102.09
2023-01-13T10:45:58.607Z,101102.13
2023-01-13T10:48:33.591Z,101112.09
2023-01-13T10:51:20.993Z,101100.88
2023-01-13T10:53:51.378Z,101101.66
2023-01-13T10:56:20.080Z,101101.66
2023-01-13T10:58:48.607Z,101098.13
2023-01-13T11:01:19.163Z,101087.69
2023-01-13T11:03:49.755Z,101084.22
2023-01-13T11:06:25.754Z,101080.72
2023-01-13T11:08:55.338Z,101083.13
2023-01-13T11:11:28.768Z,101082.16
2023-01-13T11:14:19.460Z,101076.66
2023-01-13T11:16:53.512Z,101080.13
2023-01-13T11:19:23.040Z,101071.50
2023-01-13T11:22:05.929Z,101071.41
2023-01-13T11:24:36.552Z,101051.91
2023-01-13T11:27:13.020Z,101059.03
2023-01-13T11:29:59.905Z,101059.34
2023-01-13T11:32:33.725Z,101055.13
2023-01-13T11:35:02.874Z,101052.31
2023-01-13T11:37:33.518Z,101046.78
2023-01-13T11:40:12.367Z,101056.09
2023-01-13T11:42:39.551Z,101055.50
2023-01-13T11:45:18.948Z,101048.63
2023-01-13T11:47:47.811Z,101052.31
2023-01-13T11:50:18.339Z,101054.06
2023-01-13T11:52:45.645Z,101055.63
2023-01-13T11:55:35.158Z,101046.03
2023-01-13T11:58:08.420Z,101045.47
2023-01-13T12:00:41.506Z,101045.91
2023-01-13T12:03:15.446Z,101038.28
2023-01-13T12:05:48.240Z,101032.34
2023-01-13T12:08:26.179Z,101025.81
2023-01-13T12:11:04.741Z,101020.56
2023-01-13T12:13:52.697Z,101016.44
2023-01-13T12:16:25.502Z,101010.69
2023-01-13T12:18:52.785Z,101017.00
2023-01-13T12:21:30.524Z,101016.81
2023-01-13T12:24:15.958Z,101011.25
2023-01-13T12:26:54.353Z,101014.50
2023-01-13T12:29:28.427Z,101006.84
2023-01-13T12:31:58.088Z,101001.28
2023-01-13T12:34:28.528Z,100997.78
2023-01-13T12:37:04.778Z,100985.88
2023-01-13T12:39:51.694Z,100987.69
2023-01-13T12:42:38.524Z,100975.53
2023-01-13T12:45:11.587Z,100986.75
2023-01-13T12:47:44.445Z,100976.25
2023-01-13T12:50:23.845Z,100965.78
2023-01-13T12:52:53.460Z,100980.03
2023-01-13T12:55:22.556Z,100976.72
2023-01-13T12:57:56.972Z,100972.94
2023-01-13T13:00:24.366Z,100967.06
2023-01-13T13:03:10.316Z,100969.84
2023-01-13T13:05:49.842Z,100963.72
2023-01-13T13:08:20.643Z,100955.16
2023-01-13T13:10:57.618Z,100956.00
2023-01-13T13:13:43.047Z,100950.81
2023-01-13T13:16:36.368Z,100952.56
2023-01-13T13:19:20.113Z,100952.13
2023-01-13T13:22:06.437Z,100947.03
2023-01-13T13:24:34.323Z,100963.22
2023-01-13T13:27:22.851Z,100955.59
2023-01-13T13:29:53.154Z,100943.63
2023-01-13T13:32:35.868Z,100951.56
2023-01-13T13:35:18.241Z,100952.31
2023-01-13T13:38:28.912Z,100949.94
2023-01-13T13:41:15.707Z,100949.13
2023-01-13T13:44:03.338Z,100941.50
2023-01-13T13:46:47.519Z,100944.94
2023-01-13T13:49:14.669Z,100943.13
2023-01-13T13:51:57.967Z,100946.63
2023-01-13T13:54:25.232Z,100949.94
2023-01-13T13:56:52.573Z,100941.19
2023-01-13T13:59:26.044Z,100936.00
2023-01-13T14:02:02.134Z,100932.44
2023-01-13T14:04:33.875Z,100927.19
2023-01-13T14:07:04.402Z,100933.19
2023-01-13T14:09:41.030Z,100938.72
2023-01-13T14:12:20.357Z,100934.19
2023-01-13T14:14:48.497Z,100935.94
2023-01-13T14:17:22.330Z,100939.34
2023-01-13T14:19:53.998Z,100949.09
2023-01-13T14:22:21.436Z,100944.16
2023-01-13T14:24:55.101Z,100941.66
2023-01-13T14:27:24.068Z,100938.09
2023-01-13T14:29:55.463Z,100953.63
2023-01-13T14:32:32.593Z,100958.81
2023-01-13T14:34:59.726Z,100959.69
2023-01-13T14:37:33.091Z,100961.50
2023-01-13T14:40:00.335Z,100956.31
2023-01-13T14:42:36.458Z,100947.75
2023-01-13T14:45:03.885Z,100959.88
2023-01-13T14:47:33.837Z,100962.50
2023-01-13T14:50:16.854Z,100958.03
2023-01-13T14:52:48.354Z,100959.63
2023-01-13T14:55:21.701Z,100958.75
2023-01-13T14:57:49.531Z,100958.03
2023-01-13T15:00:16.743Z,100952.84
2023-01-13T15:02:56.249Z,100957.09
2023-01-13T15:05:23.539Z,100955.28
2023-01-13T15:07:59.557Z,100944.88
2023-01-13T15:10:28.476Z,100947.28
2023-01-13T15:12:57.039Z,100952.94
2023-01-13T15:15:24.287Z,100957.59
2023-01-13T15:17:51.813Z,100951.88
2023-01-13T15:20:23.586Z,100941.59
2023-01-13T15:22:51.769Z,100952.94
2023-01-13T15:25:22.143Z,100967.84
2023-01-13T15:27:52.322Z,100967.97
2023-01-13T15:30:31.351Z,100966.53
2023-01-13T15:32:59.273Z,100966.81
2023-01-13T15:35:27.638Z,100974.16
2023-01-13T15:38:03.447Z,100972.75
2023-01-13T15:40:32.509Z,100961.84
2023-01-13T15:43:18.259Z,100963.09
2023-01-13T15:46:07.189Z,100970.22
2023-01-13T15:48:34.729Z,100961.97
2023-01-13T15:51:06.176Z,100960.50
2023-01-13T15:53:39.425Z,100969.41
2023-01-13T15:56:20.051Z,100969.50
2023-01-13T15:58:47.771Z,100974.88
2023-01-13T16:01:17.111Z,100979.22
2023-01-13T16:03:44.402Z,100978.44
2023-01-13T16:06:15.070Z,101004.34
2023-01-13T16:08:42.154Z,100992.41
2023-01-13T16:11:12.782Z,101004.66
2023-01-13T16:13:42.475Z,101013.41
2023-01-13T16:16:16.234Z,101008.25
2023-01-13T16:18:43.578Z,101009.28
2023-01-13T16:21:12.533Z,101018.97
2023-01-13T16:23:40.518Z,101013.94
2023-01-13T16:26:14.258Z,101005.44
2023-01-13T16:28:41.429Z,100999.63
2023-01-13T16:31:19.091Z,100995.47
2023-01-13T16:33:49.768Z,100997.16
2023-01-13T16:36:20.508Z,101014.38
2023-01-13T16:38:48.363Z,101020.31
2023-01-13T16:41:15.671Z,101026.34
2023-01-13T16:43:43.942Z,101029.91
2023-01-13T16:46:17.090Z,101023.22
2023-01-13T16:48:44.312Z,101018.22
2023-01-13T16:51:11.451Z,101014.00
2023-01-13T16:53:38.675Z,101019.22
2023-01-13T16:56:22.032Z,101030.41
2023-01-13T16:58:49.560Z,101031.31
2023-01-13T17:01:29.988Z,101028.84
2023-01-13T17:03:57.952Z,101036.66
2023-01-13T17:06:31.761Z,101039.25
2023-01-13T17:09:00.320Z,101028.84
2023-01-13T17:11:27.464Z,101030.59
2023-01-13T17:13:54.647Z,101030.75
2023-01-13T17:16:22.876Z,101039.31
2023-01-13T17:18:50.347Z,101057.38
2023-01-13T17:21:17.544Z,101052.34
2023-01-13T17:23:45.173Z,101055.75
2023-01-13T17:26:25.153Z,101057.56
2023-01-13T17:28:52.570Z,101063.53
2023-01-13T17:31:19.883Z,101056.69
2023-01-13T17:33:47.044Z,101056.75
2023-01-13T17:36:16.740Z,101066.25
2023-01-13T17:38:44.238Z,101061.22
2023-01-13T17:41:11.405Z,101068.94
2023-01-13T17:43:38.630Z,101063.84
2023-01-13T17:46:09.783Z,101066.44
2023-01-13T17:48:37.052Z,101060.41
2023-01-13T17:51:06.816Z,101064.63
2023-01-13T17:53:34.128Z,101074.13
2023-01-13T17:56:01.343Z,101063.88
2023-01-13T17:58:28.434Z,101061.34
2023-01-13T18:00:55.701Z,101063.09
2023-01-13T18:03:23.071Z,101063.94
2023-01-13T18:05:50.177Z,101079.38
2023-01-13T18:08:18.130Z,101081.97
2023-01-13T18:10:45.387Z,101076.00
2023-01-13T18:13:12.621Z,101070.91
2023-01-13T18:15:39.659Z,101081.19
2023-01-13T18:18:06.857Z,101082.88
2023-01-13T18:20:52.805Z,101088.91
2023-01-13T18:23:39.992Z,101086.41
2023-01-13T18:26:38.920Z,101085.56
2023-01-13T18:29:06.497Z,101087.38
2023-01-13T18:31:34.136Z,101091.63
2023-01-13T18:34:01.646Z,101081.34
2023-01-13T18:36:29.256Z,101104.44
2023-01-13T18:38:58.192Z,101112.13
2023-01-13T18:41:44.587Z,101101.00
2023-01-13T18:44:11.832Z,101115.66
2023-01-13T18:46:39.118Z,101111.34
2023-01-13T18:49:06.615Z,101109.59
2023-01-13T18:51:33.712Z,101121.63
2023-01-13T18:54:01.049Z,101113.94
2023-01-13T18:59:33.222Z,101119.94
2023-01-13T19:02:01.175Z,101120.78
2023-01-13T19:04:28.481Z,101122.53
2023-01-13T19:07:00.638Z,101125.13
2023-01-13T19:09:29.318Z,101134.53
2023-01-13T19:11:57.297Z,101141.41
2023-01-13T19:14:34.488Z,101138.84
2023-01-13T19:17:02.196Z,101136.22
2023-01-13T19:19:32.658Z,101137.94
2023-01-13T19:21:59.841Z,101130.19
2023-01-13T19:24:26.979Z,101131.88
2023-01-13T19:26:54.707Z,101130.13
2023-01-13T19:29:22.295Z,101131.03
2023-01-13T19:31:50.766Z,101120.59
2023-01-13T19:34:21.044Z,101125.75
2023-01-13T19:36:50.685Z,101137.72
2023-01-13T19:39:17.848Z,101138.59
2023-01-13T19:42:03.868Z,101125.78
2023-01-13T19:44:49.934Z,101127.44
2023-01-13T19:47:17.799Z,101142.03
2023-01-13T19:49:45.464Z,101142.91
2023-01-13T19:52:15.116Z,101142.16
2023-01-13T19:54:44.786Z,101143.88
2023-01-13T19:57:12.538Z,101146.53
2023-01-13T19:59:41.311Z,101145.72
2023-01-13T20:02:13.552Z,101146.59
2023-01-13T20:04:44.757Z,101146.56
2023-01-13T20:07:16.703Z,101145.78
2023-01-13T20:09:45.722Z,101144.91
2023-01-13T20:12:16.553Z,101138.91
2023-01-13T20:14:44.359Z,101141.47
2023-01-13T20:17:12.160Z,101144.00
2023-01-13T20:19:42.385Z,101148.28
2023-01-13T20:22:10.389Z,101142.34
2023-01-13T20:24:38.190Z,101146.63
2023-01-13T20:27:10.384Z,101144.06
2023-01-13T20:29:37.822Z,101144.09
2023-01-13T20:32:05.591Z,101139.81
2023-01-13T20:34:33.196Z,101148.41
2023-01-13T20:37:00.677Z,101155.25
2023-01-13T20:39:28.167Z,101150.09
2023-01-13T20:42:17.000Z,101144.97
2023-01-13T20:44:45.127Z,101143.28
2023-01-13T20:47:16.301Z,101147.56
2023-01-13T20:49:43.983Z,101137.31
2023-01-13T20:52:11.451Z,101133.03
2023-01-13T20:54:40.290Z,101133.06
2023-01-13T20:57:12.702Z,101134.72
2023-01-13T20:59:40.347Z,101139.88
2023-01-13T21:02:11.127Z,101137.31
2023-01-13T21:04:38.915Z,101134.78
2023-01-13T21:07:06.551Z,101142.47
2023-01-13T21:09:36.769Z,101144.19
2023-01-13T21:12:25.021Z,101145.91
2023-01-13T21:15:11.279Z,101140.78
2023-01-13T21:17:57.277Z,101139.06
2023-01-13T21:20:27.454Z,101133.06
2023-01-13T21:22:55.012Z,101140.78
2023-01-13T21:25:22.917Z,101147.59
2023-01-13T21:27:50.434Z,101156.16
2023-01-13T21:30:18.219Z,101156.19
2023-01-13T21:32:46.073Z,101163.88
2023-01-13T21:35:13.785Z,101151.91
2023-01-13T21:37:41.918Z,101147.66
2023-01-13T21:40:10.582Z,101163.06
2023-01-13T21:42:56.411Z,101161.34
2023-01-13T21:45:42.181Z,101167.31
2023-01-13T21:48:09.393Z,101162.19
2023-01-13T21:50:38.171Z,101162.19
2023-01-13T21:53:07.360Z,101165.63
2023-01-13T21:55:36.609Z,101163.03
2023-01-13T21:58:14.283Z,101158.78
2023-01-13T22:00:42.897Z,101170.75
2023-01-13T22:03:11.318Z,101171.59
2023-01-13T22:05:38.782Z,101176.72
2023-01-13T22:08:06.123Z,101175.03
2023-01-13T22:10:34.196Z,101181.00
2023-01-13T22:13:20.664Z,101185.28
2023-01-13T22:15:48.149Z,101193.88
2023-01-13T22:18:15.204Z,101193.00
2023-01-13T22:20:42.437Z,101190.41
2023-01-13T22:23:09.490Z,101187.00
2023-01-13T22:25:36.579Z,101193.00
2023-01-13T22:28:05.976Z,101187.84
2023-01-13T22:30:33.288Z,101185.28
2023-01-13T22:33:00.553Z,101194.69
2023-01-13T22:35:27.765Z,101198.09
2023-01-13T22:37:54.867Z,101193.81
2023-01-13T22:40:22.061Z,101194.69
2023-01-13T22:42:49.116Z,101193.81
2023-01-13T22:45:16.352Z,101195.56
2023-01-13T22:47:43.507Z,101193.00
2023-01-13T22:50:12.561Z,101188.69
2023-01-13T22:52:39.740Z,101186.13
2023-01-13T22:55:07.153Z,101179.28
2023-01-13T22:57:36.789Z,101181.00
2023-01-13T23:00:10.095Z,101177.56
2023-01-13T23:02:40.125Z,101187.78
2023-01-13T23:05:07.395Z,101191.22
2023-01-13T23:07:35.487Z,101199.75
2023-01-13T23:10:02.944Z,101193.78
2023-01-13T23:12:30.048Z,101194.63
2023-01-13T23:14:57.234Z,101200.63
2023-01-13T23:17:24.382Z,101201.50
2023-01-13T23:19:51.555Z,101207.50
2023-01-13T23:22:18.830Z,101225.41
2023-01-13T23:24:45.967Z,101225.41
2023-01-13T23:27:13.076Z,101217.75
2023-01-13T23:29:40.234Z,101220.31
2023-01-13T23:32:07.509Z,101216.88
2023-01-13T23:34:34.656Z,101220.28
2023-01-13T23:37:01.770Z,101222.84
2023-01-13T23:39:28.950Z,101228.81
2023-01-13T23:41:55.911Z,101221.16
2023-01-13T23:44:23.144Z,101233.94
2023-01-13T23:46:50.227Z,101226.22
2023-01-13T23:49:17.363Z,101222.78
2023-01-13T23:51:44.428Z,101225.34
2023-01-13T23:54:11.642Z,101235.59
2023-01-13T23:56:39.656Z,101241.59
2023-01-13T23:59:06.990Z,101249.25
